Sao Joao do Triunfo, Brazil
Current Conditions -  °F | °C
As of 10:00 AM on Wednesday 22 Oct 2014 (Local Time) from SBBI Reporting Station
Broken Clouds Broken Clouds  
Wind Chill: 59°   Ceiling: 1100
Heat Index: 59°   Visibility: 6mi
Dew Point: 52°   Wind: 9mph
Humidity: 77%   Direction: 110°ESE
Pressure: 30.27"   Gusts: NA
Location:  25.68°S, 50.3°W
Report Text: SBBI 221200Z 11008KT 9999 SCT009 BKN011 15/11 Q1025
Loading
Personal Weather Stations






























Interactive Weather Map
Tropical Storm Tracking
New forecast layout! Learn more

10-Day Weather Forecast

Advertisements
Track Severe Weather on mobile